createdAt,value
2023-04-22T00:00:32.330Z,41.86
2023-04-22T00:01:27.862Z,41.77
2023-04-22T00:02:23.566Z,41.97
2023-04-22T00:03:19.224Z,41.86
2023-04-22T00:04:14.704Z,42.27
2023-04-22T00:05:10.575Z,42.37
2023-04-22T00:06:06.599Z,42.17
2023-04-22T00:07:02.157Z,42.07
2023-04-22T00:07:57.725Z,42.07
2023-04-22T00:08:53.273Z,42.37
2023-04-22T00:09:48.809Z,42.17
2023-04-22T00:10:44.361Z,41.66
2023-04-22T00:11:40.960Z,42.09
2023-04-22T00:12:36.514Z,41.77
2023-04-22T00:13:32.087Z,42.37
2023-04-22T00:14:27.642Z,42.37
2023-04-22T00:15:23.172Z,41.56
2023-04-22T00:16:18.786Z,42.09
2023-04-22T00:17:14.731Z,41.88
2023-04-22T00:18:10.296Z,41.38
2023-04-22T00:19:05.821Z,42.49
2023-04-22T00:20:01.355Z,42.49
2023-04-22T00:20:57.933Z,42.69
2023-04-22T00:21:53.474Z,42.39
2023-04-22T00:22:49.093Z,41.99
2023-04-22T00:23:44.629Z,41.38
2023-04-22T00:24:40.167Z,42.49
2023-04-22T00:25:35.725Z,41.99
2023-04-22T00:26:31.279Z,41.78
2023-04-22T00:27:26.830Z,42.60
2023-04-22T00:28:22.389Z,42.39
2023-04-22T00:29:17.985Z,42.49
2023-04-22T00:30:13.491Z,42.21
2023-04-22T00:31:09.103Z,42.39
2023-04-22T00:32:04.705Z,42.29
2023-04-22T00:33:00.367Z,42.69
2023-04-22T00:33:55.821Z,42.90
2023-04-22T00:34:51.404Z,41.99
2023-04-22T00:35:46.978Z,42.41
2023-04-22T00:36:42.515Z,42.31
2023-04-22T00:37:38.591Z,42.21
2023-04-22T00:38:34.115Z,42.72
2023-04-22T00:39:32.232Z,42.60
2023-04-22T00:40:27.796Z,42.72
2023-04-22T00:41:23.829Z,42.60
2023-04-22T00:42:19.404Z,42.21
2023-04-22T00:43:15.420Z,42.21
2023-04-22T00:44:11.484Z,42.31
2023-04-22T00:45:07.046Z,43.23
2023-04-22T00:46:02.670Z,42.31
2023-04-22T00:46:58.251Z,42.61
2023-04-22T00:47:53.862Z,43.32
2023-04-22T00:48:50.371Z,42.61
2023-04-22T00:49:46.927Z,43.23
2023-04-22T00:50:42.498Z,42.92
2023-04-22T00:51:38.548Z,43.32
2023-04-22T00:52:34.117Z,42.51
2023-04-22T00:53:29.670Z,42.82
2023-04-22T00:54:25.238Z,43.32
2023-04-22T00:55:20.801Z,43.02
2023-04-22T00:56:16.388Z,43.32
2023-04-22T00:57:12.468Z,42.92
2023-04-22T00:58:08.999Z,43.02
2023-04-22T00:59:04.587Z,43.02
2023-04-22T01:00:00.275Z,44.13
2023-04-22T01:00:56.194Z,44.04
2023-04-22T01:01:52.216Z,44.04
2023-04-22T01:02:47.998Z,43.84
2023-04-22T01:03:43.477Z,43.44
2023-04-22T01:04:38.955Z,42.82
2023-04-22T01:05:34.986Z,43.55
2023-04-22T01:06:30.552Z,43.93
2023-04-22T01:07:26.113Z,44.16
2023-04-22T01:08:22.130Z,44.36
2023-04-22T01:09:17.690Z,44.56
2023-04-22T01:10:13.256Z,44.87
2023-04-22T01:11:08.809Z,45.07
2023-04-22T01:12:04.455Z,44.87
2023-04-22T01:12:59.980Z,44.67
2023-04-22T01:14:06.795Z,44.87
2023-04-22T01:15:04.504Z,44.87
2023-04-22T01:15:57.893Z,44.87
2023-04-22T01:16:53.486Z,45.07
2023-04-22T01:17:49.076Z,44.77
2023-04-22T01:18:44.537Z,44.87
2023-04-22T01:19:41.519Z,44.59
2023-04-22T01:20:36.654Z,44.68
2023-04-22T01:21:32.189Z,44.46
2023-04-22T01:22:27.757Z,44.59
2023-04-22T01:23:23.284Z,43.87
2023-04-22T01:24:19.857Z,43.96
2023-04-22T01:25:15.413Z,43.44
2023-04-22T01:26:10.982Z,43.44
2023-04-22T01:27:06.523Z,43.57
2023-04-22T01:28:02.082Z,44.59
2023-04-22T01:28:57.633Z,44.59
2023-04-22T01:29:53.176Z,44.59
2023-04-22T01:30:48.735Z,44.59
2023-04-22T01:31:44.313Z,44.68
2023-04-22T01:32:39.834Z,44.59
2023-04-22T01:33:35.354Z,44.59
2023-04-22T01:34:30.919Z,45.20
2023-04-22T01:35:26.491Z,44.68
2023-04-22T01:36:22.044Z,44.68
2023-04-22T01:37:17.593Z,44.48
2023-04-22T01:38:13.113Z,44.40
2023-04-22T01:39:08.678Z,44.18
2023-04-22T01:40:04.221Z,44.51
2023-04-22T01:40:59.754Z,43.90
2023-04-22T01:41:56.294Z,44.48
2023-04-22T01:42:51.836Z,43.99
2023-04-22T01:43:47.403Z,44.59
2023-04-22T01:44:42.962Z,44.51
2023-04-22T01:45:38.589Z,45.20
2023-04-22T01:46:34.077Z,44.18
2023-04-22T01:47:29.647Z,44.51
2023-04-22T01:48:25.221Z,44.51
2023-04-22T01:49:20.756Z,44.60
2023-04-22T01:50:16.318Z,44.81
2023-04-22T01:51:11.884Z,44.20
2023-04-22T01:52:07.389Z,45.01
2023-04-22T01:53:02.981Z,44.91
2023-04-22T01:53:59.020Z,44.91
2023-04-22T01:54:54.559Z,44.20
2023-04-22T01:55:50.111Z,44.81
2023-04-22T01:56:45.659Z,45.32
2023-04-22T01:57:41.193Z,45.32
2023-04-22T01:58:36.739Z,44.10
2023-04-22T01:59:32.289Z,45.11
2023-04-22T02:00:27.831Z,45.11
2023-04-22T02:01:23.460Z,44.93
2023-04-22T02:02:30.777Z,44.63
2023-04-22T02:03:26.352Z,45.11
2023-04-22T02:04:21.764Z,44.73
2023-04-22T02:05:17.302Z,44.40
2023-04-22T02:06:12.864Z,45.34
2023-04-22T02:07:08.425Z,45.14
2023-04-22T02:08:03.954Z,45.24
2023-04-22T02:08:59.489Z,45.14
2023-04-22T02:09:55.531Z,44.93
2023-04-22T02:10:51.055Z,45.24
2023-04-22T02:11:46.610Z,44.42
2023-04-22T02:12:42.165Z,45.03
2023-04-22T02:13:38.196Z,45.34
2023-04-22T02:14:33.758Z,44.93
2023-04-22T02:15:29.440Z,44.63
2023-04-22T02:16:24.983Z,45.24
2023-04-22T02:17:20.466Z,45.14
2023-04-22T02:18:15.992Z,44.93
2023-04-22T02:19:11.832Z,44.63
2023-04-22T02:20:07.488Z,44.93
2023-04-22T02:21:03.017Z,44.73
2023-04-22T02:21:58.556Z,44.93
2023-04-22T02:22:54.107Z,44.73
2023-04-22T02:23:49.666Z,45.03
2023-04-22T02:24:45.208Z,45.24
2023-04-22T02:25:40.767Z,45.95
2023-04-22T02:26:36.318Z,45.03
2023-04-22T02:27:31.881Z,45.03
2023-04-22T02:28:27.422Z,44.73
2023-04-22T02:29:23.984Z,45.14
2023-04-22T02:30:19.576Z,45.36
2023-04-22T02:31:15.152Z,44.95
2023-04-22T02:32:11.161Z,45.36
2023-04-22T02:33:06.722Z,44.73
2023-04-22T02:34:02.231Z,45.15
2023-04-22T02:34:58.784Z,44.95
2023-04-22T02:35:54.339Z,45.36
2023-04-22T02:36:49.882Z,45.15
2023-04-22T02:37:45.430Z,45.46
2023-04-22T02:38:40.974Z,45.26
2023-04-22T02:39:36.509Z,45.26
2023-04-22T02:40:32.020Z,44.95
2023-04-22T02:41:28.567Z,44.85
2023-04-22T02:42:24.086Z,45.76
2023-04-22T02:43:19.631Z,45.26
2023-04-22T02:44:15.647Z,45.26
2023-04-22T02:45:11.223Z,45.67
2023-04-22T02:46:07.280Z,45.15
2023-04-22T02:47:02.778Z,46.07
2023-04-22T02:47:59.309Z,45.89
2023-04-22T02:48:54.816Z,45.99
2023-04-22T02:49:50.360Z,45.97
2023-04-22T02:50:45.940Z,45.68
2023-04-22T02:51:41.476Z,46.28
2023-04-22T02:52:37.002Z,45.79
2023-04-22T02:53:32.542Z,46.30
2023-04-22T02:54:28.090Z,46.09
2023-04-22T02:55:23.628Z,45.99
2023-04-22T02:56:19.148Z,46.89
2023-04-22T02:57:14.709Z,45.76
2023-04-22T02:58:10.263Z,46.81
2023-04-22T02:59:05.811Z,45.89
2023-04-22T03:00:01.387Z,45.89
2023-04-22T03:00:57.030Z,46.20
2023-04-22T03:01:52.512Z,45.79
2023-04-22T03:02:49.190Z,45.68
2023-04-22T03:03:44.945Z,46.09
2023-04-22T03:04:40.139Z,45.59
2023-04-22T03:05:35.694Z,45.89
2023-04-22T03:06:31.249Z,46.09
2023-04-22T03:07:26.790Z,46.09
2023-04-22T03:08:22.348Z,46.60
2023-04-22T03:09:17.906Z,46.40
2023-04-22T03:10:13.477Z,46.09
2023-04-22T03:11:09.026Z,46.09
2023-04-22T03:12:04.580Z,46.81
2023-04-22T03:13:00.599Z,47.24
2023-04-22T03:13:56.155Z,46.50
2023-04-22T03:14:51.697Z,46.20
2023-04-22T03:15:47.252Z,46.60
2023-04-22T03:16:42.853Z,46.52
2023-04-22T03:17:38.398Z,46.81
2023-04-22T03:18:33.921Z,46.32
2023-04-22T03:19:29.475Z,47.44
2023-04-22T03:20:25.053Z,47.24
2023-04-22T03:21:20.616Z,46.83
2023-04-22T03:22:16.721Z,46.72
2023-04-22T03:23:12.462Z,47.34
2023-04-22T03:24:07.996Z,47.44
2023-04-22T03:25:03.595Z,47.24
2023-04-22T03:25:59.133Z,47.13
2023-04-22T03:26:54.624Z,47.03
2023-04-22T03:27:50.179Z,47.44
2023-04-22T03:28:45.743Z,47.13
2023-04-22T03:29:41.622Z,47.34
2023-04-22T03:30:36.815Z,47.13
2023-04-22T03:31:32.407Z,47.13
2023-04-22T03:32:27.895Z,46.93
2023-04-22T03:33:23.452Z,46.93
2023-04-22T03:34:19.485Z,47.13
2023-04-22T03:35:15.519Z,46.83
2023-04-22T03:36:12.156Z,47.26
2023-04-22T03:37:07.619Z,46.83
2023-04-22T03:38:03.165Z,47.05
2023-04-22T03:38:58.777Z,46.83
2023-04-22T03:39:54.276Z,47.05
2023-04-22T03:40:51.560Z,47.05
2023-04-22T03:41:45.389Z,47.87
2023-04-22T03:42:40.943Z,47.05
2023-04-22T03:43:36.484Z,46.93
2023-04-22T03:44:32.054Z,47.46
2023-04-22T03:45:27.593Z,48.38
2023-04-22T03:46:23.174Z,47.87
2023-04-22T03:47:19.185Z,47.97
2023-04-22T03:48:14.732Z,46.95
2023-04-22T03:49:10.274Z,46.64
2023-04-22T03:50:05.828Z,47.26
2023-04-22T03:51:01.383Z,47.87
2023-04-22T03:51:56.928Z,48.07
2023-04-22T03:52:52.484Z,47.87
2023-04-22T03:53:48.025Z,48.18
2023-04-22T03:54:54.910Z,47.66
2023-04-22T03:55:50.904Z,48.07
2023-04-22T03:56:46.471Z,47.36
2023-04-22T03:57:42.055Z,47.97
2023-04-22T03:58:37.581Z,47.97
2023-04-22T03:59:33.135Z,47.99
2023-04-22T04:00:28.700Z,47.77
2023-04-22T04:01:24.248Z,47.87
2023-04-22T04:02:19.857Z,48.27
2023-04-22T04:03:15.637Z,47.87
2023-04-22T04:04:11.016Z,47.99
2023-04-22T04:05:06.515Z,48.10
2023-04-22T04:06:02.097Z,47.69
2023-04-22T04:06:57.500Z,48.50
2023-04-22T04:07:53.037Z,48.40
2023-04-22T04:08:48.587Z,47.79
2023-04-22T04:09:44.194Z,47.49
2023-04-22T04:10:40.188Z,47.69
2023-04-22T04:11:35.736Z,47.69
2023-04-22T04:12:31.770Z,48.71
2023-04-22T04:13:27.358Z,47.79
2023-04-22T04:14:22.890Z,48.40
2023-04-22T04:15:18.446Z,47.99
2023-04-22T04:16:14.006Z,47.89
2023-04-22T04:17:09.528Z,49.11
2023-04-22T04:18:05.111Z,47.79
2023-04-22T04:19:00.580Z,48.19
2023-04-22T04:19:56.098Z,48.91
2023-04-22T04:20:51.637Z,48.30
2023-04-22T04:21:47.187Z,48.30
2023-04-22T04:22:42.721Z,48.71
2023-04-22T04:23:38.303Z,48.91
2023-04-22T04:24:45.139Z,48.60
2023-04-22T04:25:40.676Z,48.50
2023-04-22T04:26:36.237Z,48.30
2023-04-22T04:27:31.793Z,48.30
2023-04-22T04:28:27.372Z,48.60
2023-04-22T04:29:22.959Z,48.81
2023-04-22T04:30:18.988Z,49.04
2023-04-22T04:31:15.592Z,48.63
2023-04-22T04:32:11.108Z,48.73
2023-04-22T04:33:06.709Z,48.71
2023-04-22T04:34:02.207Z,48.42
2023-04-22T04:34:57.784Z,48.63
2023-04-22T04:35:53.791Z,49.04
2023-04-22T04:36:49.324Z,48.73
2023-04-22T04:37:45.887Z,48.42
2023-04-22T04:38:41.448Z,48.63
2023-04-22T04:39:37.790Z,48.93
2023-04-22T04:40:33.018Z,48.32
2023-04-22T04:41:28.573Z,48.93
2023-04-22T04:42:24.114Z,49.13
2023-04-22T04:43:20.121Z,48.42
2023-04-22T04:44:15.682Z,48.42
2023-04-22T04:45:11.254Z,49.04
2023-04-22T04:46:06.844Z,49.13
2023-04-22T04:47:02.421Z,49.65
2023-04-22T04:47:58.511Z,48.52
2023-04-22T04:48:53.998Z,48.22
2023-04-22T04:49:49.995Z,48.83
2023-04-22T04:50:45.603Z,48.93
2023-04-22T04:51:41.276Z,48.83
2023-04-22T04:52:38.290Z,48.83
2023-04-22T04:53:33.823Z,48.52
2023-04-22T04:54:29.344Z,49.34
2023-04-22T04:55:24.875Z,48.93
2023-04-22T04:56:20.450Z,49.13
2023-04-22T04:57:16.030Z,49.34
2023-04-22T04:58:11.563Z,49.34
2023-04-22T04:59:07.131Z,48.73
2023-04-22T05:00:02.645Z,48.73
2023-04-22T05:00:58.245Z,48.73
2023-04-22T05:01:53.754Z,49.44
2023-04-22T05:02:49.430Z,49.04
2023-04-22T05:03:45.008Z,48.83
2023-04-22T05:04:40.950Z,48.93
2023-04-22T05:05:36.429Z,48.63
2023-04-22T05:06:31.997Z,49.24
2023-04-22T05:07:27.531Z,49.24
2023-04-22T05:08:23.083Z,48.93
2023-04-22T05:09:19.118Z,48.73
2023-04-22T05:10:14.685Z,48.63
2023-04-22T05:11:10.220Z,48.83
2023-04-22T05:12:06.264Z,48.83
2023-04-22T05:13:04.121Z,48.63
2023-04-22T05:13:57.365Z,48.63
2023-04-22T05:14:52.932Z,48.83
2023-04-22T05:15:48.981Z,48.93
2023-04-22T05:16:45.050Z,48.52
2023-04-22T05:17:41.098Z,48.52
2023-04-22T05:18:36.633Z,48.73
2023-04-22T05:19:33.205Z,48.91
2023-04-22T05:20:29.227Z,48.91
2023-04-22T05:21:24.797Z,48.93
2023-04-22T05:22:20.335Z,48.91
2023-04-22T05:23:16.921Z,48.71
2023-04-22T05:24:12.532Z,49.04
2023-04-22T05:25:08.539Z,48.81
2023-04-22T05:26:04.062Z,48.91
2023-04-22T05:26:59.599Z,48.83
2023-04-22T05:27:55.160Z,48.52
2023-04-22T05:28:50.696Z,48.71
2023-04-22T05:29:46.261Z,48.93
2023-04-22T05:30:41.811Z,48.81
2023-04-22T05:31:37.416Z,48.30
2023-04-22T05:32:33.076Z,49.11
2023-04-22T05:33:28.557Z,48.81
2023-04-22T05:34:24.096Z,48.60
2023-04-22T05:35:19.618Z,48.50
2023-04-22T05:36:15.269Z,48.60
2023-04-22T05:37:10.761Z,48.50
2023-04-22T05:38:06.329Z,49.11
2023-04-22T05:39:01.855Z,48.71
2023-04-22T05:39:57.389Z,48.60
2023-04-22T05:40:52.927Z,48.81
2023-04-22T05:41:48.483Z,48.81
2023-04-22T05:42:44.564Z,48.48
2023-04-22T05:43:40.127Z,48.79
2023-04-22T05:44:35.647Z,48.38
2023-04-22T05:45:31.166Z,48.60
2023-04-22T05:46:26.736Z,48.38
2023-04-22T05:47:22.319Z,48.48
2023-04-22T05:48:17.784Z,48.27
2023-04-22T05:49:13.301Z,47.66
2023-04-22T05:50:09.839Z,48.18
2023-04-22T05:51:05.388Z,47.77
2023-04-22T05:52:00.949Z,48.68
2023-04-22T05:52:56.471Z,47.97
2023-04-22T05:53:52.045Z,48.58
2023-04-22T05:54:48.094Z,47.64
2023-04-22T05:55:44.131Z,48.15
2023-04-22T05:56:39.674Z,48.25
2023-04-22T05:57:35.202Z,48.05
2023-04-22T05:58:30.751Z,47.64
2023-04-22T05:59:26.275Z,47.95
2023-04-22T06:00:21.914Z,47.95
2023-04-22T06:01:17.444Z,48.05
2023-04-22T06:02:13.059Z,47.54
2023-04-22T06:03:08.839Z,48.25
2023-04-22T06:04:04.307Z,48.03
2023-04-22T06:05:00.038Z,47.72
2023-04-22T06:05:55.300Z,46.81
2023-04-22T06:06:50.692Z,46.91
2023-04-22T06:07:47.261Z,46.91
2023-04-22T06:08:42.800Z,46.98
2023-04-22T06:09:38.527Z,47.21
2023-04-22T06:10:35.369Z,46.89
2023-04-22T06:11:30.921Z,47.09
2023-04-22T06:12:26.964Z,46.89
2023-04-22T06:13:22.523Z,47.09
2023-04-22T06:14:18.070Z,46.89
2023-04-22T06:15:13.636Z,46.97
2023-04-22T06:16:09.783Z,46.86
2023-04-22T06:17:05.718Z,47.17
2023-04-22T06:18:01.789Z,47.14
2023-04-22T06:18:57.773Z,46.74
2023-04-22T06:19:53.817Z,46.44
2023-04-22T06:20:49.837Z,46.41
2023-04-22T06:21:45.400Z,46.72
2023-04-22T06:22:41.446Z,45.83
2023-04-22T06:23:37.465Z,46.31
2023-04-22T06:24:34.021Z,45.83
2023-04-22T06:25:29.593Z,45.98
2023-04-22T06:26:25.145Z,45.89
2023-04-22T06:27:21.153Z,45.78
2023-04-22T06:28:16.712Z,46.49
2023-04-22T06:29:12.324Z,46.17
2023-04-22T06:30:07.864Z,45.86
2023-04-22T06:31:03.467Z,45.76
2023-04-22T06:31:58.963Z,45.36
2023-04-22T06:32:54.981Z,45.15
2023-04-22T06:33:50.557Z,44.93
2023-04-22T06:34:47.125Z,45.23
2023-04-22T06:35:42.708Z,44.73
2023-04-22T06:36:38.228Z,45.31
2023-04-22T06:37:23.922Z,45.21
2023-04-22T06:38:19.475Z,44.30
2023-04-22T06:39:16.064Z,43.77
2023-04-22T06:40:11.628Z,44.20
2023-04-22T06:41:07.211Z,44.68
2023-04-22T06:42:02.746Z,44.38
2023-04-22T06:42:58.757Z,44.48
2023-04-22T06:43:43.439Z,44.26
2023-04-22T06:44:38.997Z,43.85
2023-04-22T06:45:34.531Z,43.35
2023-04-22T06:46:30.132Z,43.95
2023-04-22T06:47:25.652Z,43.23
2023-04-22T06:48:21.210Z,44.12
2023-04-22T06:49:17.737Z,44.21
2023-04-22T06:50:13.751Z,43.20
2023-04-22T06:51:09.310Z,43.29
2023-04-22T06:52:04.826Z,43.08
2023-04-22T06:53:00.362Z,43.16
2023-04-22T06:53:55.915Z,42.35
2023-04-22T06:54:51.456Z,42.46
2023-04-22T06:55:47.014Z,42.55
2023-04-22T06:56:42.560Z,42.15
2023-04-22T06:57:38.102Z,42.05
2023-04-22T06:58:33.666Z,42.46
2023-04-22T06:59:29.217Z,42.86
2023-04-22T07:00:24.761Z,42.55
2023-04-22T07:01:20.330Z,42.43
2023-04-22T07:02:15.907Z,41.83
2023-04-22T07:03:11.595Z,42.13
2023-04-22T07:04:07.033Z,41.32
2023-04-22T07:05:02.584Z,42.13
2023-04-22T07:05:58.134Z,42.33
2023-04-22T07:06:53.680Z,41.91
2023-04-22T07:07:49.222Z,41.20
2023-04-22T07:08:57.531Z,40.58
2023-04-22T07:09:53.084Z,40.58
2023-04-22T07:10:48.652Z,41.36
2023-04-22T07:11:55.458Z,41.56
2023-04-22T07:12:51.018Z,41.47
2023-04-22T07:13:46.592Z,40.66
2023-04-22T07:14:42.186Z,41.27
2023-04-22T07:15:37.705Z,40.86
2023-04-22T07:16:33.274Z,41.06
2023-04-22T07:17:28.810Z,41.27
2023-04-22T07:18:24.348Z,41.16
2023-04-22T07:19:19.895Z,41.06
2023-04-22T07:20:15.522Z,40.96
2023-04-22T07:21:11.048Z,41.06
2023-04-22T07:22:06.594Z,41.47
2023-04-22T07:23:02.151Z,40.56
2023-04-22T07:23:57.733Z,40.56
2023-04-22T07:24:53.268Z,41.06
2023-04-22T07:25:48.805Z,41.27
2023-04-22T07:26:45.344Z,40.36
2023-04-22T07:27:40.872Z,40.86
2023-04-22T07:28:36.436Z,40.86
2023-04-22T07:29:31.964Z,41.47
2023-04-22T07:30:27.491Z,41.47
2023-04-22T07:31:23.076Z,41.27
2023-04-22T07:32:18.608Z,40.86
2023-04-22T07:33:14.120Z,40.56
2023-04-22T07:34:09.686Z,40.36
2023-04-22T07:35:05.734Z,40.56
2023-04-22T07:36:01.286Z,40.74
2023-04-22T07:36:56.811Z,40.84
2023-04-22T07:37:52.369Z,40.54
2023-04-22T07:38:47.910Z,41.45
2023-04-22T07:39:43.449Z,40.92
2023-04-22T07:40:39.990Z,41.13
2023-04-22T07:41:35.542Z,40.72
2023-04-22T07:42:31.081Z,41.42
2023-04-22T07:43:26.634Z,41.02
2023-04-22T07:44:22.203Z,41.02
2023-04-22T07:45:17.729Z,41.02
2023-04-22T07:46:13.351Z,40.62
2023-04-22T07:47:08.921Z,40.80
2023-04-22T07:48:04.608Z,41.42
2023-04-22T07:49:00.605Z,40.92
2023-04-22T07:49:56.616Z,40.80
2023-04-22T07:50:52.686Z,40.80
2023-04-22T07:51:48.667Z,41.00
2023-04-22T07:52:44.694Z,40.70
2023-04-22T07:53:41.846Z,40.91
2023-04-22T07:54:37.876Z,41.11
2023-04-22T07:55:33.413Z,40.20
2023-04-22T07:56:28.944Z,39.88
2023-04-22T07:57:24.518Z,40.48
2023-04-22T07:58:20.071Z,39.98
2023-04-22T07:59:15.586Z,40.38
2023-04-22T08:00:11.143Z,40.08
2023-04-22T08:01:06.706Z,41.19
2023-04-22T08:02:02.346Z,40.38
2023-04-22T08:02:57.905Z,39.65
2023-04-22T08:03:53.625Z,39.86
2023-04-22T08:04:48.939Z,39.86
2023-04-22T08:05:45.923Z,39.56
2023-04-22T08:06:41.481Z,40.16
2023-04-22T08:07:37.024Z,40.14
2023-04-22T08:08:33.584Z,39.25
2023-04-22T08:09:41.105Z,39.03
2023-04-22T08:10:36.384Z,39.23
2023-04-22T08:11:31.930Z,39.34
2023-04-22T08:12:28.474Z,39.14
2023-04-22T08:13:24.032Z,39.34
2023-04-22T08:14:19.549Z,39.12
2023-04-22T08:15:15.093Z,39.42
2023-04-22T08:16:10.692Z,39.22
2023-04-22T08:17:06.166Z,39.42
2023-04-22T08:18:01.726Z,39.92
2023-04-22T08:18:57.242Z,39.50
2023-04-22T08:19:52.798Z,39.00
2023-04-22T08:20:48.323Z,39.30
2023-04-22T08:21:43.881Z,39.90
2023-04-22T08:22:39.424Z,39.60
2023-04-22T08:23:34.955Z,39.28
2023-04-22T08:24:30.633Z,39.18
2023-04-22T08:25:26.265Z,38.58
2023-04-22T08:26:21.787Z,39.76
2023-04-22T08:27:17.338Z,38.88
2023-04-22T08:28:12.842Z,39.26
2023-04-22T08:29:08.376Z,38.76
2023-04-22T08:30:03.916Z,39.06
2023-04-22T08:30:59.633Z,38.86
2023-04-22T08:31:55.129Z,38.24
2023-04-22T08:33:01.985Z,38.34
2023-04-22T08:33:57.477Z,38.72
2023-04-22T08:34:54.341Z,38.53
2023-04-22T08:35:48.533Z,39.32
2023-04-22T08:36:44.090Z,38.53
2023-04-22T08:37:39.616Z,38.70
2023-04-22T08:38:35.142Z,39.01
2023-04-22T08:39:30.685Z,38.81
2023-04-22T08:40:26.232Z,38.51
2023-04-22T08:41:21.798Z,38.20
2023-04-22T08:42:17.307Z,38.89
2023-04-22T08:43:13.881Z,38.29
2023-04-22T08:44:09.234Z,36.68
2023-04-22T08:45:04.762Z,37.38
2023-04-22T08:46:00.293Z,38.51
2023-04-22T08:46:55.977Z,38.49
2023-04-22T08:47:52.479Z,37.87
2023-04-22T08:48:47.921Z,37.37
2023-04-22T08:49:43.547Z,36.96
2023-04-22T08:50:39.090Z,36.66
2023-04-22T08:51:34.633Z,36.85
2023-04-22T08:52:30.177Z,36.75
2023-04-22T08:53:25.757Z,37.45
2023-04-22T08:54:21.324Z,36.55
2023-04-22T08:55:16.842Z,36.75
2023-04-22T08:56:12.531Z,36.85
2023-04-22T08:57:08.055Z,36.35
2023-04-22T08:58:03.716Z,36.15
2023-04-22T08:58:59.309Z,36.25
2023-04-22T08:59:56.108Z,36.94
2023-04-22T09:00:51.397Z,35.64
2023-04-22T09:01:47.058Z,36.23
2023-04-22T09:02:42.631Z,36.53
2023-04-22T09:03:38.213Z,37.23
2023-04-22T09:04:33.719Z,36.63
2023-04-22T09:05:29.170Z,37.03
2023-04-22T09:06:24.696Z,37.11
2023-04-22T09:07:20.464Z,36.61
2023-04-22T09:08:15.998Z,37.11
2023-04-22T09:09:11.531Z,36.51
2023-04-22T09:10:08.146Z,37.71
2023-04-22T09:11:03.815Z,37.41
2023-04-22T09:11:59.305Z,36.40
2023-04-22T09:12:54.854Z,36.18
2023-04-22T09:13:50.419Z,35.89
2023-04-22T09:14:46.898Z,35.49
2023-04-22T09:15:42.443Z,34.89
2023-04-22T09:16:38.012Z,35.80
2023-04-22T09:17:33.662Z,35.88
2023-04-22T09:18:29.665Z,36.56
2023-04-22T09:19:25.119Z,36.96
2023-04-22T09:20:21.683Z,36.06
2023-04-22T09:21:17.208Z,35.46
2023-04-22T09:22:12.746Z,35.86
2023-04-22T09:23:08.286Z,35.46
2023-04-22T09:24:04.833Z,35.44
2023-04-22T09:25:00.359Z,36.34
2023-04-22T09:25:55.918Z,35.85
2023-04-22T09:26:51.468Z,35.35
2023-04-22T09:27:48.064Z,35.83
2023-04-22T09:28:43.573Z,34.44
2023-04-22T09:29:39.413Z,35.93
2023-04-22T09:30:34.664Z,35.93
2023-04-22T09:31:30.217Z,34.33
2023-04-22T09:32:25.822Z,33.91
2023-04-22T09:33:21.280Z,34.41
2023-04-22T09:34:16.819Z,34.41
2023-04-22T09:35:12.379Z,35.39
2023-04-22T09:36:07.937Z,35.51
2023-04-22T09:37:03.465Z,35.89
2023-04-22T09:37:59.034Z,35.69
2023-04-22T09:38:54.560Z,35.29
2023-04-22T09:39:50.119Z,35.17
2023-04-22T09:40:45.660Z,35.28
2023-04-22T09:41:41.211Z,33.78
2023-04-22T09:42:36.923Z,32.78
2023-04-22T09:43:32.460Z,33.18
2023-04-22T09:44:28.040Z,32.29
2023-04-22T09:45:23.546Z,33.08
2023-04-22T09:46:19.192Z,32.97
2023-04-22T09:47:14.648Z,33.67
2023-04-22T09:48:10.195Z,33.07
2023-04-22T09:49:05.710Z,32.67
2023-04-22T09:50:01.273Z,32.77
2023-04-22T09:50:56.830Z,32.27
2023-04-22T09:51:53.020Z,32.57
2023-04-22T09:52:48.570Z,33.26
2023-04-22T09:53:44.170Z,33.45
2023-04-22T09:54:40.223Z,33.35
2023-04-22T09:55:35.774Z,33.44
2023-04-22T09:56:31.853Z,32.24
2023-04-22T09:57:27.425Z,33.04
2023-04-22T09:58:23.440Z,32.23
2023-04-22T09:59:20.020Z,33.22
2023-04-22T10:00:16.068Z,33.22
2023-04-22T10:01:11.639Z,33.02
2023-04-22T10:02:07.247Z,32.60
2023-04-22T10:03:02.914Z,33.30
2023-04-22T10:03:58.303Z,33.40
2023-04-22T10:04:54.307Z,33.30
2023-04-22T10:05:50.350Z,33.39
2023-04-22T10:06:46.388Z,31.99
2023-04-22T10:07:42.442Z,32.39
2023-04-22T10:08:38.459Z,31.78
2023-04-22T10:09:34.494Z,30.79
2023-04-22T10:10:30.051Z,30.49
2023-04-22T10:11:26.130Z,31.38
2023-04-22T10:12:32.839Z,30.99
2023-04-22T10:13:17.246Z,30.68
2023-04-22T10:14:13.275Z,31.55
2023-04-22T10:15:09.335Z,31.05
2023-04-22T10:16:05.377Z,30.56
2023-04-22T10:17:01.013Z,30.46
2023-04-22T10:17:56.911Z,30.55
2023-04-22T10:18:52.078Z,31.24
2023-04-22T10:19:48.126Z,30.35
2023-04-22T10:20:43.689Z,28.46
2023-04-22T10:21:39.288Z,26.98
2023-04-22T10:22:34.818Z,28.36
2023-04-22T10:23:30.845Z,29.04
2023-04-22T10:24:26.898Z,29.24
2023-04-22T10:25:22.471Z,27.36
2023-04-22T10:26:18.507Z,27.86
2023-04-22T10:27:14.555Z,27.26
2023-04-22T10:28:10.702Z,28.05
2023-04-22T10:29:08.023Z,28.04
2023-04-22T10:30:04.889Z,26.96
2023-04-22T10:31:00.850Z,27.25
2023-04-22T10:31:56.432Z,27.84
2023-04-22T10:32:52.478Z,26.95
2023-04-22T10:33:48.076Z,27.74
2023-04-22T10:34:44.088Z,26.74
2023-04-22T10:35:39.648Z,26.54
2023-04-22T10:36:35.209Z,26.64
2023-04-22T10:37:33.639Z,26.34
2023-04-22T10:38:27.307Z,26.45
2023-04-22T10:39:22.873Z,27.14
2023-04-22T10:40:18.446Z,26.93
2023-04-22T10:41:14.483Z,25.95
2023-04-22T10:42:10.050Z,26.74
2023-04-22T10:43:06.077Z,26.34
2023-04-22T10:44:03.147Z,26.53
2023-04-22T10:44:58.692Z,26.43
2023-04-22T10:45:54.761Z,26.13
2023-04-22T10:46:50.799Z,26.14
2023-04-22T10:47:46.468Z,26.82
2023-04-22T10:48:42.442Z,26.53
2023-04-22T10:49:39.011Z,26.53
2023-04-22T10:50:34.142Z,26.44
2023-04-22T10:51:31.041Z,27.53
2023-04-22T10:52:28.087Z,27.22
2023-04-22T10:53:24.126Z,27.32
2023-04-22T10:54:20.196Z,27.12
2023-04-22T10:55:15.828Z,26.33
2023-04-22T10:56:11.997Z,26.53
2023-04-22T10:57:18.830Z,26.23
2023-04-22T10:58:16.530Z,26.92
2023-04-22T10:59:12.004Z,26.02
2023-04-22T11:00:07.657Z,26.91
2023-04-22T11:01:03.242Z,26.42
2023-04-22T11:01:59.281Z,26.13
2023-04-22T11:02:54.971Z,26.53
2023-04-22T11:03:50.980Z,26.03
2023-04-22T11:04:46.944Z,26.43
2023-04-22T11:05:42.976Z,26.73
2023-04-22T11:06:39.023Z,27.42
2023-04-22T11:07:34.584Z,27.32
2023-04-22T11:08:30.620Z,26.43
2023-04-22T11:09:26.704Z,26.13
2023-04-22T11:10:22.229Z,26.13
2023-04-22T11:11:18.288Z,26.33
2023-04-22T11:12:14.824Z,25.93
2023-04-22T11:13:10.348Z,26.43
2023-04-22T11:14:06.387Z,26.13
2023-04-22T11:15:01.983Z,26.23
2023-04-22T11:15:58.690Z,26.71
2023-04-22T11:16:43.891Z,25.23
2023-04-22T11:17:40.007Z,25.52
2023-04-22T11:18:35.516Z,25.82
2023-04-22T11:19:31.063Z,26.12
2023-04-22T11:20:27.124Z,25.13
2023-04-22T11:21:23.170Z,24.84
2023-04-22T11:22:20.234Z,25.43
2023-04-22T11:23:17.277Z,25.33
2023-04-22T11:24:13.330Z,24.15
2023-04-22T11:25:09.405Z,25.43
2023-04-22T11:26:04.944Z,25.33
2023-04-22T11:27:00.991Z,25.62
2023-04-22T11:27:57.046Z,23.65
2023-04-22T11:28:53.087Z,25.14
2023-04-22T11:29:48.704Z,24.74
2023-04-22T11:30:44.847Z,24.95
2023-04-22T11:31:42.034Z,25.23
2023-04-22T11:32:38.090Z,25.52
2023-04-22T11:33:34.436Z,24.92
2023-04-22T11:34:30.455Z,24.54
2023-04-22T11:35:37.747Z,24.73
2023-04-22T11:36:33.792Z,25.43
2023-04-22T11:37:29.844Z,24.63
2023-04-22T11:38:14.859Z,24.73
2023-04-22T11:39:10.910Z,23.44
2023-04-22T11:40:28.121Z,23.94
2023-04-22T11:41:04.054Z,23.74
2023-04-22T11:41:59.621Z,23.95
2023-04-22T11:42:55.198Z,23.95
2023-04-22T11:43:51.333Z,24.33
2023-04-22T11:44:47.327Z,23.74
2023-04-22T11:45:44.417Z,23.94
2023-04-22T11:46:40.440Z,23.44
2023-04-22T11:47:36.053Z,22.86
2023-04-22T11:48:32.065Z,23.46
2023-04-22T11:49:29.139Z,23.75
2023-04-22T11:50:24.759Z,23.94
2023-04-22T11:51:20.336Z,24.04
2023-04-22T11:52:16.374Z,23.65
2023-04-22T11:53:13.409Z,23.25
2023-04-22T11:54:09.443Z,23.65
2023-04-22T11:55:04.993Z,23.65
2023-04-22T11:56:01.087Z,23.65
2023-04-22T11:56:57.166Z,23.05
2023-04-22T11:57:52.741Z,22.77
2023-04-22T11:58:48.796Z,23.56